Time;durP1;ratioP1;P1;durP2;ratioP2;P2;SDS_P1;SDS_P2;PMS_P1;PMS_P2;Temp;Humidity;BMP_temperature;BMP_pressure;BME280_temperature;BME280_humidity;BME280_pressure;Samples;Min_cycle;Max_cycle;Signal;HPM_P1;HPM_P2
2024/01/11 00:00:24;;;;;;;26.13;17.83;;;;;;;1.54;100.00;100741.59;4971425;28;20193;-74
2024/01/11 00:02:49;;;;;;;29.88;19.38;;;;;;;1.48;100.00;100747.00;4969863;28;20038;-74
2024/01/11 00:05:14;;;;;;;30.13;19.58;;;;;;;1.42;100.00;100737.69;4971831;28;20039;-74
2024/01/11 00:07:40;;;;;;;29.85;21.17;;;;;;;1.31;100.00;100739.84;4970948;28;20023;-73
2024/01/11 00:10:06;;;;;;;27.92;19.30;;;;;;;1.25;100.00;100740.06;4967492;28;20031;-74
2024/01/11 00:12:31;;;;;;;34.10;21.00;;;;;;;1.18;100.00;100733.38;4949377;28;20464;-74
2024/01/11 00:14:58;;;;;;;31.45;21.50;;;;;;;1.12;100.00;100726.66;4970311;28;20045;-74
2024/01/11 00:17:25;;;;;;;33.15;22.48;;;;;;;1.09;100.00;100718.97;4968158;28;20027;-74
2024/01/11 00:19:50;;;;;;;34.50;23.20;;;;;;;1.07;100.00;100722.50;4967683;28;20490;-75
2024/01/11 00:22:16;;;;;;;34.45;22.20;;;;;;;1.02;100.00;100722.69;4970385;28;20039;-74
2024/01/11 00:24:42;;;;;;;33.08;22.42;;;;;;;0.97;100.00;100728.94;4962092;28;20661;-74
2024/01/11 00:27:07;;;;;;;29.33;20.17;;;;;;;0.96;100.00;100720.31;4963692;28;20403;-74
2024/01/11 00:29:35;;;;;;;29.48;20.05;;;;;;;1.00;100.00;100719.28;4968199;28;20026;-75
2024/01/11 00:32:01;;;;;;;29.90;20.90;;;;;;;1.06;100.00;100713.88;4970618;28;20050;-75
2024/01/11 00:34:26;;;;;;;30.23;19.88;;;;;;;1.10;100.00;100715.47;4968850;28;20027;-75
2024/01/11 00:36:51;;;;;;;32.05;20.92;;;;;;;1.14;100.00;100708.41;4970291;28;20019;-76
2024/01/11 00:39:17;;;;;;;33.72;22.33;;;;;;;1.17;100.00;100710.91;4970495;28;20403;-75
2024/01/11 00:41:42;;;;;;;30.15;20.13;;;;;;;1.09;100.00;100708.56;4970655;28;20031;-75
2024/01/11 00:44:08;;;;;;;32.92;21.70;;;;;;;1.06;100.00;100708.66;4947327;28;20070;-74
2024/01/11 00:46:34;;;;;;;34.17;20.92;;;;;;;1.03;100.00;100708.78;4970287;28;20109;-74
2024/01/11 00:48:59;;;;;;;32.78;20.95;;;;;;;1.05;100.00;100709.59;4969729;28;20031;-76
2024/01/11 00:51:25;;;;;;;31.95;20.63;;;;;;;1.05;100.00;100707.00;4970653;28;20124;-72
2024/01/11 00:53:50;;;;;;;28.25;19.48;;;;;;;1.08;100.00;100711.22;4970301;28;20031;-74
2024/01/11 00:56:20;;;;;;;31.67;21.20;;;;;;;1.04;100.00;100713.09;4967159;28;20038;-74
2024/01/11 00:58:45;;;;;;;30.35;21.20;;;;;;;1.07;100.00;100706.91;4945578;29;20043;-74
2024/01/11 01:01:12;;;;;;;30.48;20.08;;;;;;;1.03;100.00;100708.78;4978046;28;20037;-73
2024/01/11 01:03:38;;;;;;;31.95;20.40;;;;;;;1.05;100.00;100704.41;4974213;28;20033;-73
2024/01/11 01:06:04;;;;;;;32.40;20.27;;;;;;;1.08;100.00;100706.88;4970427;28;20038;-75
2024/01/11 01:08:29;;;;;;;33.35;20.80;;;;;;;1.08;100.00;100712.06;4966583;28;20129;-74
2024/01/11 01:10:55;;;;;;;31.55;20.80;;;;;;;1.09;100.00;100708.56;4969577;28;20031;-73
2024/01/11 01:13:20;;;;;;;32.35;20.65;;;;;;;1.15;100.00;100708.34;4968789;28;20353;-74
2024/01/11 01:15:46;;;;;;;28.00;20.23;;;;;;;1.18;100.00;100715.19;4969373;28;20162;-74
2024/01/11 01:18:11;;;;;;;32.78;20.55;;;;;;;1.18;100.00;100713.44;4970293;28;20039;-74
2024/01/11 01:20:37;;;;;;;26.98;19.63;;;;;;;1.24;100.00;100705.41;4952585;28;20432;-74
2024/01/11 01:23:02;;;;;;;32.80;21.48;;;;;;;1.26;100.00;100722.72;4969642;28;20043;-74
2024/01/11 01:25:28;;;;;;;29.77;20.00;;;;;;;1.24;100.00;100723.59;4969969;28;20035;-74
2024/01/11 01:27:53;;;;;;;33.40;21.25;;;;;;;1.20;100.00;100714.22;4969712;28;20057;-74
2024/01/11 01:30:19;;;;;;;34.58;21.08;;;;;;;1.17;100.00;100727.34;4969668;28;20043;-74
2024/01/11 01:32:45;;;;;;;28.80;20.75;;;;;;;1.15;100.00;100723.94;4954695;28;20026;-74
2024/01/11 01:35:10;;;;;;;31.45;20.70;;;;;;;1.13;100.00;100717.94;4972718;28;20366;-74
2024/01/11 01:37:36;;;;;;;30.60;20.08;;;;;;;1.23;100.00;100715.88;4973035;28;20518;-74
2024/01/11 01:40:02;;;;;;;30.85;19.67;;;;;;;1.20;100.00;100722.03;4972826;28;20089;-75
2024/01/11 01:42:27;;;;;;;29.33;19.23;;;;;;;1.33;100.00;100721.59;4951782;28;20484;-75
2024/01/11 01:44:53;;;;;;;28.52;19.50;;;;;;;1.34;100.00;100721.53;4973744;28;20043;-73
2024/01/11 01:47:18;;;;;;;29.35;20.45;;;;;;;1.36;100.00;100721.47;4973247;28;20034;-73
2024/01/11 01:49:45;;;;;;;28.42;20.02;;;;;;;1.32;100.00;100725.09;4972823;28;20038;-74
2024/01/11 01:52:14;;;;;;;29.85;19.88;;;;;;;1.32;100.00;100725.09;4965652;28;20034;-75
2024/01/11 01:54:39;;;;;;;28.08;20.10;;;;;;;1.28;100.00;100723.50;4969079;28;20041;-76
2024/01/11 01:57:07;;;;;;;32.05;20.67;;;;;;;1.31;100.00;100723.38;4972993;28;20236;-73
2024/01/11 01:59:33;;;;;;;30.40;20.75;;;;;;;1.33;100.00;100732.00;4969787;28;20058;-73
2024/01/11 02:01:58;;;;;;;26.83;19.20;;;;;;;1.35;100.00;100735.41;4970161;28;20058;-74
2024/01/11 02:04:24;;;;;;;32.88;20.10;;;;;;;1.40;100.00;100733.47;4971510;28;20026;-73
2024/01/11 02:06:52;;;;;;;30.33;20.27;;;;;;;1.45;100.00;100731.53;4972510;28;20486;-73
2024/01/11 02:09:18;;;;;;;31.13;19.25;;;;;;;1.50;100.00;100729.63;4972713;28;20030;-73
2024/01/11 02:11:44;;;;;;;26.33;18.25;;;;;;;1.54;100.00;100731.19;4968551;28;20448;-74
2024/01/11 02:14:10;;;;;;;30.92;19.92;;;;;;;1.56;100.00;100734.59;4972507;28;20503;-74
2024/01/11 02:16:36;;;;;;;28.50;19.58;;;;;;;1.52;100.00;100733.00;4969237;28;20122;-74
2024/01/11 02:19:04;;;;;;;27.00;18.75;;;;;;;1.49;100.00;100733.09;4972242;28;20033;-74
2024/01/11 02:21:33;;;;;;;26.77;18.98;;;;;;;1.45;100.00;100728.94;4968768;28;20447;-74
2024/01/11 02:24:06;;;;;;;25.83;19.15;;;;;;;1.49;100.00;100733.09;4968544;28;20035;-73
2024/01/11 02:26:31;;;;;;;29.15;20.33;;;;;;;1.50;100.00;100732.22;4972788;28;20042;-74
2024/01/11 02:28:56;;;;;;;27.67;18.95;;;;;;;1.52;100.00;100727.81;4961356;28;20022;-73
2024/01/11 02:31:23;;;;;;;29.35;19.65;;;;;;;1.53;100.00;100729.50;4951328;28;20045;-73
2024/01/11 02:33:49;;;;;;;26.25;18.92;;;;;;;1.49;100.00;100722.72;4973546;28;20165;-72
2024/01/11 02:36:15;;;;;;;29.33;19.63;;;;;;;1.55;100.00;100714.69;4971822;28;20062;-73
2024/01/11 02:38:41;;;;;;;28.08;18.67;;;;;;;1.54;100.00;100725.97;4971802;28;20061;-73
2024/01/11 02:41:07;;;;;;;30.05;19.30;;;;;;;1.47;100.00;100721.94;4972408;28;20129;-74
2024/01/11 02:43:35;;;;;;;30.08;19.60;;;;;;;1.40;100.00;100712.66;4972079;28;20042;-74
2024/01/11 02:46:01;;;;;;;26.88;18.92;;;;;;;1.35;100.00;100709.38;4954693;28;20061;-73
2024/01/11 02:48:28;;;;;;;27.23;19.17;;;;;;;1.28;100.00;100707.91;4972342;28;20022;-73
2024/01/11 02:50:55;;;;;;;31.88;20.42;;;;;;;1.24;100.00;100708.00;4971861;28;20059;-73
2024/01/11 02:53:20;;;;;;;27.52;18.73;;;;;;;1.24;100.00;100697.59;4971684;28;20387;-74
2024/01/11 02:55:46;;;;;;;27.35;19.48;;;;;;;1.17;100.00;100690.97;4971966;28;20038;-74
2024/01/11 02:58:11;;;;;;;30.77;19.73;;;;;;;1.13;100.00;100688.50;4972011;28;20069;-73
2024/01/11 03:00:37;;;;;;;27.95;19.88;;;;;;;1.08;100.00;100685.22;4963734;28;20492;-74
2024/01/11 03:03:02;;;;;;;36.38;20.80;;;;;;;1.07;100.00;100675.72;4969738;28;20037;-73
2024/01/11 03:05:28;;;;;;;31.73;19.83;;;;;;;1.06;100.00;100682.69;4957291;28;20038;-74
2024/01/11 03:07:53;;;;;;;33.88;20.77;;;;;;;1.08;100.00;100680.88;4970130;28;20109;-72
2024/01/11 03:10:19;;;;;;;26.60;19.20;;;;;;;1.09;100.00;100672.19;4975037;28;20039;-73
2024/01/11 03:12:44;;;;;;;28.73;19.75;;;;;;;1.10;100.00;100673.03;4974611;28;20553;-74
2024/01/11 03:15:09;;;;;;;28.38;19.77;;;;;;;1.10;100.00;100668.69;4975108;28;20114;-74
2024/01/11 03:17:35;;;;;;;31.63;20.52;;;;;;;1.11;100.00;100669.53;4971753;28;20053;-73
2024/01/11 03:20:00;;;;;;;30.70;20.83;;;;;;;1.09;100.00;100661.78;4971531;28;20030;-73
2024/01/11 03:22:26;;;;;;;29.08;19.88;;;;;;;1.12;100.00;100669.44;4954435;28;20860;-74
2024/01/11 03:24:51;;;;;;;30.92;20.38;;;;;;;1.13;100.00;100655.56;4963618;28;20041;-74
2024/01/11 03:27:17;;;;;;;30.52;20.05;;;;;;;1.16;100.00;100660.66;4966854;28;20033;-74
2024/01/11 03:29:43;;;;;;;25.75;18.73;;;;;;;1.19;100.00;100662.28;4953982;28;20129;-73
2024/01/11 03:32:12;;;;;;;27.52;18.95;;;;;;;1.15;100.00;100656.34;4972359;28;20038;-74
2024/01/11 03:34:38;;;;;;;28.13;19.30;;;;;;;1.11;100.00;100653.94;4972393;28;20359;-74
2024/01/11 03:37:03;;;;;;;31.27;20.85;;;;;;;1.13;100.00;100647.75;4971297;28;20031;-74
2024/01/11 03:39:29;;;;;;;30.15;20.52;;;;;;;1.13;100.00;100652.97;4971355;28;20467;-74
2024/01/11 03:41:54;;;;;;;30.30;20.08;;;;;;;1.12;100.00;100646.06;4970439;28;20368;-73
2024/01/11 03:44:19;;;;;;;27.08;19.15;;;;;;;1.15;100.00;100650.31;4970956;28;20131;-75
2024/01/11 03:46:45;;;;;;;25.30;18.40;;;;;;;1.15;100.00;100651.16;4970039;28;20086;-73
2024/01/11 03:49:10;;;;;;;27.88;19.25;;;;;;;1.14;100.00;100656.41;4971525;28;20118;-73
2024/01/11 03:51:36;;;;;;;29.33;19.67;;;;;;;1.10;100.00;100653.09;4967114;28;20046;-73
2024/01/11 03:54:01;;;;;;;25.25;19.02;;;;;;;1.07;100.00;100658.38;4970103;28;20039;-73
2024/01/11 03:56:26;;;;;;;25.63;18.80;;;;;;;1.05;100.00;100655.00;4970411;28;20071;-73
2024/01/11 03:58:52;;;;;;;28.17;19.33;;;;;;;1.02;100.00;100652.50;4970284;28;20393;-72
2024/01/11 04:01:18;;;;;;;30.23;21.48;;;;;;;1.01;100.00;100653.41;4970454;28;20047;-74
2024/01/11 04:03:44;;;;;;;26.40;19.42;;;;;;;1.02;100.00;100649.91;4970369;28;20039;-74
2024/01/11 04:06:20;;;;;;;30.77;19.75;;;;;;;1.01;100.00;100653.41;4974328;28;20047;-73
2024/01/11 04:08:46;;;;;;;27.58;18.88;;;;;;;0.98;100.00;100648.34;4967424;28;20134;-73
2024/01/11 04:11:12;;;;;;;29.27;19.65;;;;;;;1.00;100.00;100651.72;4970348;28;20042;-73
2024/01/11 04:13:39;;;;;;;26.52;18.65;;;;;;;1.02;100.00;100644.72;4970343;28;20030;-73
2024/01/11 04:16:07;;;;;;;27.58;19.45;;;;;;;1.02;100.00;100639.50;4969810;28;20042;-73
2024/01/11 04:18:33;;;;;;;31.33;20.05;;;;;;;1.03;100.00;100646.41;4970346;28;20027;-73
2024/01/11 04:20:59;;;;;;;30.60;20.17;;;;;;;1.07;100.00;100642.78;4969940;28;20498;-73
2024/01/11 04:23:24;;;;;;;29.55;19.13;;;;;;;1.08;100.00;100639.28;4966238;28;20035;-72
2024/01/11 04:25:51;;;;;;;27.63;18.48;;;;;;;1.10;100.00;100642.69;4969964;28;20541;-72
2024/01/11 04:28:17;;;;;;;24.92;18.85;;;;;;;1.14;100.00;100644.25;4970033;28;20039;-74
2024/01/11 04:30:43;;;;;;;28.63;20.23;;;;;;;1.15;100.00;100651.16;4969579;28;20403;-73
2024/01/11 04:33:09;;;;;;;30.42;19.60;;;;;;;1.15;100.00;100645.97;4952802;28;20067;-74
2024/01/11 04:35:35;;;;;;;27.05;18.75;;;;;;;1.16;100.00;100650.25;4952677;28;20027;-74
2024/01/11 04:38:01;;;;;;;27.38;20.20;;;;;;;1.10;100.00;100639.25;4965750;28;20047;-73
2024/01/11 04:40:26;;;;;;;28.77;20.42;;;;;;;1.04;100.00;100647.25;4968411;28;20117;-73
2024/01/11 04:42:52;;;;;;;29.17;19.88;;;;;;;1.02;100.00;100639.50;4966521;28;20055;-74
2024/01/11 04:45:17;;;;;;;27.40;19.50;;;;;;;1.02;100.00;100639.50;4969191;28;20031;-74
2024/01/11 04:47:42;;;;;;;28.73;20.83;;;;;;;1.02;100.00;100643.84;4965907;28;20488;-74
2024/01/11 04:50:08;;;;;;;32.85;20.75;;;;;;;0.98;100.00;100637.94;4969728;28;20462;-74
2024/01/11 04:52:34;;;;;;;31.92;21.65;;;;;;;0.98;100.00;100643.13;4969766;28;20052;-74
2024/01/11 04:54:59;;;;;;;28.27;20.02;;;;;;;1.00;100.00;100648.28;4969393;28;20052;-75
2024/01/11 04:57:24;;;;;;;29.50;20.38;;;;;;;0.99;100.00;100650.03;4966149;28;20452;-73
2024/01/11 04:59:50;;;;;;;29.40;20.20;;;;;;;0.99;100.00;100637.03;4969355;28;20062;-74
2024/01/11 05:02:15;;;;;;;28.15;20.98;;;;;;;1.01;100.00;100640.41;4969827;28;20042;-75
2024/01/11 05:04:41;;;;;;;29.77;20.02;;;;;;;1.03;100.00;100638.63;4968813;28;20053;-74
2024/01/11 05:07:06;;;;;;;25.77;19.75;;;;;;;1.04;100.00;100636.88;4965488;28;20498;-75
2024/01/11 05:09:32;;;;;;;28.85;20.23;;;;;;;1.02;100.00;100633.47;4969887;28;20569;-75
2024/01/11 05:11:58;;;;;;;30.98;19.63;;;;;;;0.99;100.00;100634.44;4969462;28;20046;-75
2024/01/11 05:14:23;;;;;;;29.67;20.40;;;;;;;0.98;100.00;100621.50;4969572;28;20031;-74
2024/01/11 05:16:48;;;;;;;28.85;19.73;;;;;;;0.95;100.00;100622.44;4969751;28;20349;-74
2024/01/11 05:19:14;;;;;;;29.55;21.13;;;;;;;0.95;100.00;100632.84;4969719;28;20027;-74
2024/01/11 05:21:39;;;;;;;31.23;20.63;;;;;;;0.92;100.00;100622.56;4965289;28;20472;-74
2024/01/11 05:24:05;;;;;;;29.38;20.92;;;;;;;0.92;100.00;100622.56;4968943;28;20031;-74
2024/01/11 05:26:31;;;;;;;29.40;21.30;;;;;;;0.95;100.00;100622.44;4969231;28;20042;-73
2024/01/11 05:28:56;;;;;;;30.92;20.67;;;;;;;0.96;100.00;100624.16;4968563;28;20030;-73
2024/01/11 05:31:22;;;;;;;31.77;20.80;;;;;;;0.97;100.00;100620.66;4969164;28;20038;-73
2024/01/11 05:33:47;;;;;;;29.55;20.40;;;;;;;0.95;100.00;100614.66;4968786;28;20581;-73
2024/01/11 05:36:13;;;;;;;31.60;20.80;;;;;;;0.93;100.00;100613.03;4972364;28;20039;-72
2024/01/11 05:38:39;;;;;;;31.98;21.10;;;;;;;0.92;100.00;100617.38;4969490;28;20069;-73
2024/01/11 05:41:05;;;;;;;33.40;21.95;;;;;;;0.89;100.00;100616.63;4964763;28;20026;-74
2024/01/11 05:43:31;;;;;;;32.92;21.50;;;;;;;0.87;100.00;100614.09;4969300;28;20081;-74
2024/01/11 05:45:56;;;;;;;30.15;21.02;;;;;;;0.83;100.00;100607.31;4969851;28;20050;-74
2024/01/11 05:48:22;;;;;;;31.27;21.02;;;;;;;0.83;100.00;100609.91;4970523;28;20039;-74
2024/01/11 05:50:47;;;;;;;32.05;20.83;;;;;;;0.82;100.00;100610.81;4969364;28;20487;-73
2024/01/11 05:53:13;;;;;;;34.33;22.92;;;;;;;0.79;100.00;100606.56;4966175;28;20465;-73
2024/01/11 05:55:39;;;;;;;29.17;22.17;;;;;;;0.74;100.00;100607.66;4952435;28;20023;-73
2024/01/11 05:58:05;;;;;;;40.20;22.45;;;;;;;0.70;100.00;100606.06;4952156;28;20039;-73
2024/01/11 06:00:30;;;;;;;32.20;22.75;;;;;;;0.71;100.00;100606.00;4965335;28;20047;-74
2024/01/11 06:02:56;;;;;;;31.70;21.30;;;;;;;0.71;100.00;100603.41;4969781;28;20499;-75
2024/01/11 06:05:21;;;;;;;31.33;21.58;;;;;;;0.71;100.00;100602.53;4970756;28;20037;-75
2024/01/11 06:07:47;;;;;;;35.85;22.67;;;;;;;0.67;100.00;100603.56;4968050;28;20066;-74
2024/01/11 06:10:14;;;;;;;32.88;22.08;;;;;;;0.66;100.00;100612.25;4971640;28;20048;-75
2024/01/11 06:12:39;;;;;;;33.80;23.40;;;;;;;0.63;100.00;100604.59;4966805;28;20030;-75
2024/01/11 06:15:05;;;;;;;30.73;22.48;;;;;;;0.63;100.00;100609.78;4965838;28;20042;-74
2024/01/11 06:17:31;;;;;;;31.85;23.38;;;;;;;0.62;100.00;100603.75;4967990;28;20672;-74
2024/01/11 06:19:56;;;;;;;33.20;21.67;;;;;;;0.62;100.00;100605.50;4971921;28;20022;-73
2024/01/11 06:22:22;;;;;;;29.48;22.52;;;;;;;0.65;100.00;100603.63;4953655;28;20035;-74
2024/01/11 06:24:47;;;;;;;29.38;20.92;;;;;;;0.69;100.00;100614.75;4967244;28;20501;-75
2024/01/11 06:27:13;;;;;;;35.30;22.63;;;;;;;0.66;100.00;100604.47;4969045;28;20054;-72
2024/01/11 06:29:38;;;;;;;32.58;22.15;;;;;;;0.66;100.00;100610.50;4973021;28;20042;-76
2024/01/11 06:32:04;;;;;;;32.78;22.73;;;;;;;0.65;100.00;100608.00;4970105;28;20062;-74
2024/01/11 06:34:30;;;;;;;34.13;22.27;;;;;;;0.63;100.00;100609.78;4972247;28;20472;-75
2024/01/11 06:36:56;;;;;;;31.95;21.67;;;;;;;0.62;100.00;100602.88;4954168;28;20038;-74
2024/01/11 06:39:21;;;;;;;32.25;22.30;;;;;;;0.58;100.00;100606.50;4968589;28;20031;-75
2024/01/11 06:41:47;;;;;;;32.95;22.08;;;;;;;0.51;100.00;100605.03;4972915;28;20030;-73
2024/01/11 06:44:12;;;;;;;31.35;21.88;;;;;;;0.49;100.00;100606.81;4972757;28;20093;-73
2024/01/11 06:46:40;;;;;;;28.60;22.33;;;;;;;0.46;100.00;100612.13;4972572;28;20045;-72
2024/01/11 06:49:06;;;;;;;31.60;22.10;;;;;;;0.46;100.00;100612.13;4971993;28;20133;-73
2024/01/11 06:51:32;;;;;;;32.40;20.90;;;;;;;0.45;100.00;100610.44;4971666;28;20109;-73
2024/01/11 06:53:57;;;;;;;27.27;19.95;;;;;;;0.46;100.00;100606.94;4972042;28;20129;-74
2024/01/11 06:56:23;;;;;;;28.75;20.25;;;;;;;0.44;100.00;100608.72;4968146;28;20038;-73
2024/01/11 06:58:49;;;;;;;31.25;20.92;;;;;;;0.38;100.00;100609.78;4971739;28;20023;-73
2024/01/11 07:01:15;;;;;;;33.78;21.70;;;;;;;0.43;100.00;100607.03;4972040;28;20026;-75
2024/01/11 07:03:40;;;;;;;33.83;20.85;;;;;;;0.44;100.00;100603.53;4972261;28;20426;-74
2024/01/11 07:06:06;;;;;;;32.15;22.02;;;;;;;0.43;100.00;100607.03;4971432;28;20133;-72
2024/01/11 07:08:32;;;;;;;28.55;19.38;;;;;;;0.43;100.00;100601.84;4968600;28;20046;-72
2024/01/11 07:10:59;;;;;;;31.63;21.40;;;;;;;0.44;100.00;100603.53;4970681;28;20027;-74
2024/01/11 07:13:25;;;;;;;33.53;23.00;;;;;;;0.43;100.00;100597.50;4974684;28;20475;-74
2024/01/11 07:15:51;;;;;;;33.15;22.10;;;;;;;0.46;100.00;100612.13;4960485;28;20053;-73
2024/01/11 07:18:17;;;;;;;32.28;21.65;;;;;;;0.49;100.00;100612.00;4954370;28;20059;-73
2024/01/11 07:20:43;;;;;;;32.13;21.63;;;;;;;0.52;100.00;100611.91;4962000;28;20062;-74
2024/01/11 07:23:09;;;;;;;33.85;22.77;;;;;;;0.56;100.00;100613.50;4970864;28;20034;-73
2024/01/11 07:25:34;;;;;;;33.58;21.77;;;;;;;0.56;100.00;100613.50;4967604;28;20038;-74
2024/01/11 07:28:00;;;;;;;31.02;21.52;;;;;;;0.57;100.00;100610.84;4966663;28;20395;-74
2024/01/11 07:30:26;;;;;;;30.38;21.13;;;;;;;0.60;100.00;100620.28;4969375;28;20146;-74
2024/01/11 07:32:51;;;;;;;30.60;22.23;;;;;;;0.62;100.00;100618.47;4971634;28;20031;-74
2024/01/11 07:35:16;;;;;;;32.50;21.52;;;;;;;0.64;100.00;100616.69;4971352;28;20037;-74
2024/01/11 07:37:42;;;;;;;36.65;22.45;;;;;;;0.65;100.00;100618.38;4970703;28;20030;-73
2024/01/11 07:40:11;;;;;;;33.50;22.35;;;;;;;0.62;100.00;100618.47;4968419;28;20487;-73
2024/01/11 07:42:40;;;;;;;32.45;21.13;;;;;;;0.59;100.00;100619.41;4974172;28;20030;-73
2024/01/11 07:45:09;;;;;;;32.83;21.70;;;;;;;0.61;100.00;100616.78;4971275;28;20050;-72
2024/01/11 07:47:37;;;;;;;30.13;21.90;;;;;;;0.68;100.00;100618.25;4965686;28;20039;-72
2024/01/11 07:50:06;;;;;;;36.22;22.33;;;;;;;0.71;100.00;100620.72;4970438;28;20046;-73
2024/01/11 07:52:33;;;;;;;32.55;24.23;;;;;;;0.71;100.00;100618.13;4970419;28;20110;-72
2024/01/11 07:55:06;;;;;;;35.17;25.58;;;;;;;0.66;100.00;100617.44;4970814;28;20035;-74
2024/01/11 07:57:32;;;;;;;34.03;23.77;;;;;;;0.61;100.00;100611.59;4953467;28;21312;-73
2024/01/11 07:59:59;;;;;;;34.33;23.88;;;;;;;0.60;100.00;100615.06;4967014;28;20023;-72
2024/01/11 08:02:24;;;;;;;35.25;23.67;;;;;;;0.62;100.00;100621.06;4971149;28;20079;-73
2024/01/11 08:04:50;;;;;;;35.95;25.67;;;;;;;0.65;100.00;100624.41;4966848;28;20317;-73
2024/01/11 08:07:16;;;;;;;35.38;23.73;;;;;;;0.69;100.00;100625.16;4970766;28;20031;-73
2024/01/11 08:09:45;;;;;;;33.33;23.17;;;;;;;0.76;100.00;100616.25;4970534;28;20128;-72
2024/01/11 08:12:14;;;;;;;31.25;22.05;;;;;;;0.78;100.00;100615.28;4958607;28;20049;-74
2024/01/11 08:14:44;;;;;;;27.83;21.73;;;;;;;0.77;100.00;100607.53;4953496;28;20113;-74
2024/01/11 08:17:10;;;;;;;34.22;22.70;;;;;;;0.78;100.00;100609.22;4967785;28;20408;-73
2024/01/11 08:19:35;;;;;;;37.08;24.02;;;;;;;0.83;100.00;100617.69;4970928;28;20027;-73
2024/01/11 08:22:02;;;;;;;37.33;24.08;;;;;;;0.88;100.00;100615.81;4969691;28;20171;-73
2024/01/11 08:24:27;;;;;;;43.38;26.27;;;;;;;0.93;100.00;100619.06;4966166;28;20043;-73
2024/01/11 08:26:53;;;;;;;36.58;25.60;;;;;;;0.95;100.00;100609.44;4960044;28;20544;-74
2024/01/11 08:29:22;;;;;;;40.13;24.85;;;;;;;0.94;100.00;100610.38;4970960;28;20034;-73
2024/01/11 08:31:48;;;;;;;36.05;25.58;;;;;;;0.90;100.00;100608.78;4966320;28;20110;-74
2024/01/11 08:34:13;;;;;;;39.03;25.85;;;;;;;0.86;100.00;100606.34;4970608;28;20147;-72
2024/01/11 08:36:39;;;;;;;42.42;26.73;;;;;;;0.86;100.00;100601.16;4973306;28;20031;-72
2024/01/11 08:39:11;;;;;;;41.42;26.98;;;;;;;0.87;100.00;100619.28;4970014;28;20129;-72
2024/01/11 08:41:39;;;;;;;40.80;27.88;;;;;;;0.85;100.00;100615.91;4965763;28;20495;-73
2024/01/11 08:44:05;;;;;;;38.00;26.70;;;;;;;0.93;100.00;100603.47;4966322;28;20123;-71
2024/01/11 08:46:33;;;;;;;38.35;26.00;;;;;;;1.01;100.00;100608.38;4969897;28;20447;-72
2024/01/11 08:48:59;;;;;;;35.58;26.17;;;;;;;1.06;100.00;100604.69;4969725;28;20114;-72
2024/01/11 08:51:25;;;;;;;37.22;26.20;;;;;;;1.15;100.00;100622.56;4970273;28;20043;-72
2024/01/11 08:53:51;;;;;;;42.90;28.27;;;;;;;1.24;100.00;100619.59;4969866;28;20113;-73
2024/01/11 08:56:17;;;;;;;40.95;27.85;;;;;;;1.33;100.00;100613.22;4932896;28;20042;-73
2024/01/11 08:58:42;;;;;;;39.03;27.13;;;;;;;1.42;100.00;100612.00;4969375;28;20048;-72
2024/01/11 09:01:08;;;;;;;39.35;27.70;;;;;;;1.44;100.00;100615.41;4969936;28;20030;-73
2024/01/11 09:03:35;;;;;;;39.08;27.42;;;;;;;1.45;100.00;100614.50;4970518;28;20093;-72
2024/01/11 09:06:01;;;;;;;38.67;27.25;;;;;;;1.44;100.00;100612.78;4966196;28;20444;-72
2024/01/11 09:08:26;;;;;;;36.70;26.65;;;;;;;1.52;100.00;100602.94;4968472;28;20169;-72
2024/01/11 09:10:52;;;;;;;41.33;27.27;;;;;;;1.57;100.00;100612.25;4969867;28;20875;-73
2024/01/11 09:13:18;;;;;;;39.25;27.45;;;;;;;1.62;100.00;100615.53;4952006;28;20039;-73
2024/01/11 09:15:43;;;;;;;40.58;27.77;;;;;;;1.71;100.00;100609.09;4969604;28;20034;-73
2024/01/11 09:18:09;;;;;;;40.92;27.55;;;;;;;1.71;100.00;100603.88;4968356;28;20039;-72
2024/01/11 09:20:35;;;;;;;41.05;27.58;;;;;;;1.74;100.00;100597.72;4969938;28;20031;-74
2024/01/11 09:23:03;;;;;;;41.40;27.73;;;;;;;1.80;100.00;100607.91;4969960;28;20406;-74
2024/01/11 09:25:31;;;;;;;40.67;25.88;;;;;;;1.90;100.00;100598.78;4970007;28;20114;-73
2024/01/11 09:27:57;;;;;;;39.30;26.08;;;;;;;2.00;100.00;100606.16;4968853;28;20040;-73
2024/01/11 09:30:22;;;;;;;43.63;27.35;;;;;;;1.97;100.00;100601.09;4965808;28;20051;-74
2024/01/11 09:32:48;;;;;;;40.05;27.27;;;;;;;1.93;100.00;100607.34;4967757;28;20034;-74
2024/01/11 09:35:14;;;;;;;39.92;27.58;;;;;;;1.92;100.00;100597.84;4970150;28;20045;-74
2024/01/11 09:37:40;;;;;;;42.05;27.98;;;;;;;2.01;100.00;100602.66;4970044;28;20038;-74
2024/01/11 09:40:10;;;;;;;46.00;28.85;;;;;;;2.02;100.00;100603.50;4969687;28;20034;-74
2024/01/11 09:42:37;;;;;;;41.33;28.92;;;;;;;2.19;100.00;100608.00;4944024;28;20049;-74
2024/01/11 09:45:08;;;;;;;45.70;29.77;;;;;;;2.32;100.00;100601.38;4987688;23;20390;-74
2024/01/11 09:47:36;;;;;;;46.53;30.17;;;;;;;2.47;100.00;100606.75;4988374;28;20175;-74
2024/01/11 09:50:03;;;;;;;48.90;30.73;;;;;;;2.25;100.00;100605.13;4985809;28;20030;-73
2024/01/11 09:52:31;;;;;;;47.95;30.73;;;;;;;2.30;100.00;100604.03;4988544;28;20041;-74
2024/01/11 09:55:00;;;;;;;47.65;29.73;;;;;;;2.50;100.00;100595.38;4989410;28;20034;-75
2024/01/11 09:57:34;;;;;;;42.55;28.98;;;;;;;2.46;100.00;100604.25;4988350;28;20034;-75
2024/01/11 10:00:03;;;;;;;44.65;29.25;;;;;;;2.53;100.00;100595.25;4990749;28;20044;-75
2024/01/11 10:02:30;;;;;;;39.63;29.33;;;;;;;2.51;100.00;100591.00;4987755;28;20046;-74
2024/01/11 10:04:56;;;;;;;45.25;29.27;;;;;;;2.57;100.00;100594.19;4992782;28;20509;-75
2024/01/11 10:07:24;;;;;;;44.08;28.35;;;;;;;2.65;100.00;100594.69;4989588;28;20470;-75
2024/01/11 10:09:50;;;;;;;42.42;28.55;;;;;;;2.63;100.00;100596.53;4983939;28;20371;-76
2024/01/11 10:12:20;;;;;;;40.67;27.63;;;;;;;2.61;100.00;100590.53;5000589;28;20038;-75
2024/01/11 10:14:52;;;;;;;42.58;29.20;;;;;;;2.77;100.00;100599.34;5001989;28;20038;-77
2024/01/11 10:17:18;;;;;;;47.05;30.17;;;;;;;2.71;100.00;100591.00;4989084;28;20514;-77
2024/01/11 10:19:44;;;;;;;42.85;30.17;;;;;;;2.63;100.00;100586.09;4992062;28;20173;-77
2024/01/11 10:22:12;;;;;;;43.95;29.65;;;;;;;2.88;100.00;100585.88;4988143;28;20038;-76
2024/01/11 10:24:41;;;;;;;51.63;30.17;;;;;;;3.01;100.00;100578.31;4989708;28;20479;-76
2024/01/11 10:27:09;;;;;;;44.03;30.63;;;;;;;3.05;100.00;100577.28;4991586;28;20038;-77
2024/01/11 10:29:36;;;;;;;49.67;30.70;;;;;;;3.10;100.00;100575.28;4986077;28;20034;-77
2024/01/11 10:32:04;;;;;;;44.38;29.85;;;;;;;3.16;100.00;100573.25;4989009;28;20045;-78
2024/01/11 10:34:29;;;;;;;43.63;30.10;;;;;;;2.94;100.00;100571.69;4991492;28;20045;-77
2024/01/11 10:36:56;;;;;;;47.70;32.50;;;;;;;2.99;100.00;100572.34;4985894;28;20034;-77
2024/01/11 10:39:25;;;;;;;48.83;29.92;;;;;;;3.09;100.00;100557.94;4987933;28;20494;-77
2024/01/11 10:41:56;;;;;;;46.80;31.45;;;;;;;3.18;100.00;100552.31;4987390;28;20517;-76
2024/01/11 10:44:22;;;;;;;;;;;;;;;3.29;100.00;100550.06;4989896;28;20490;-75
2024/01/11 10:46:55;;;;;;;47.50;30.27;;;;;;;3.32;100.00;100554.25;4993238;28;19929;-76
2024/01/11 10:49:25;;;;;;;45.95;30.40;;;;;;;3.48;100.00;100550.84;4992750;28;20074;-77
2024/01/11 10:52:00;;;;;;;43.63;29.88;;;;;;;3.64;100.00;100543.97;4990664;28;20764;-77
2024/01/11 10:54:27;;;;;;;46.08;29.35;;;;;;;3.73;100.00;100534.84;4984361;28;20059;-77
2024/01/11 10:56:54;;;;;;;40.08;27.88;;;;;;;3.73;100.00;100540.06;4986978;28;20113;-76
2024/01/11 10:59:24;;;;;;;41.25;27.33;;;;;;;3.83;100.00;100536.06;4989706;28;20041;-77
2024/01/11 11:01:56;;;;;;;40.80;27.27;;;;;;;3.79;100.00;100528.47;4986467;28;20478;-76
2024/01/11 11:04:25;;;;;;;41.42;27.73;;;;;;;3.89;100.00;100524.50;4986042;28;20422;-77